Time;durP1;ratioP1;P1;durP2;ratioP2;P2;SDS_P1;SDS_P2;PMS_P1;PMS_P2;Temp;Humidity;BMP_temperature;BMP_pressure;BME280_temperature;BME280_humidity;BME280_pressure;Samples;Min_cycle;Max_cycle;Signal;HPM_P1;HPM_P2
2022/10/21 00:00:34;;;;;;;22.53;11.10;;;;;;;-141.28;100.00;49199.84;5134022;27;20468;-75
2022/10/21 00:03:01;;;;;;;16.30;10.40;;;;;;;-141.28;100.00;49193.94;5132374;27;20491;-77
2022/10/21 00:05:30;;;;;;;22.27;10.80;;;;;;;-141.28;100.00;49217.50;5133899;27;20447;-75
2022/10/21 00:07:57;;;;;;;26.43;11.20;;;;;;;-141.28;100.00;49190.03;5134151;27;20436;-79
2022/10/21 00:10:25;;;;;;;19.23;11.13;;;;;;;-141.28;100.00;49213.56;5134071;27;20436;-78
2022/10/21 00:12:52;;;;;;;19.83;10.87;;;;;;;-141.28;100.00;49201.81;5133952;27;20447;-78
2022/10/21 00:15:19;;;;;;;16.90;10.27;;;;;;;-141.28;100.00;49211.59;5133472;27;20436;-76
2022/10/21 00:17:46;;;;;;;18.53;10.50;;;;;;;-141.28;100.00;49219.47;5134657;27;20497;-78
2022/10/21 00:20:13;;;;;;;21.10;11.00;;;;;;;-141.28;100.00;49233.19;5115912;27;20459;-77
2022/10/21 00:22:40;;;;;;;17.27;10.20;;;;;;;-141.28;100.00;49231.22;5133682;27;20483;-77
2022/10/21 00:25:08;;;;;;;21.43;10.23;;;;;;;-141.28;100.00;49244.97;5133529;27;20447;-79
2022/10/21 00:27:37;;;;;;;20.43;11.13;;;;;;;-141.28;100.00;49250.84;5133705;27;20454;-77
2022/10/21 00:30:05;;;;;;;17.53;9.83;;;;;;;-141.28;100.00;49252.81;5133589;27;20456;-78
2022/10/21 00:32:33;;;;;;;15.63;9.87;;;;;;;-141.28;100.00;49258.69;5133494;27;20452;-75
2022/10/21 00:34:59;;;;;;;14.73;9.83;;;;;;;-141.28;100.00;49262.63;5138929;27;20813;-77
2022/10/21 00:37:29;;;;;;;19.53;10.37;;;;;;;-141.28;100.00;49288.13;5133608;27;20451;-76
2022/10/21 00:39:57;;;;;;;16.57;9.63;;;;;;;-141.28;100.00;49282.25;5133953;27;20832;-78
2022/10/21 00:42:31;;;;;;;12.73;9.57;;;;;;;-141.28;100.00;49292.06;5133889;27;20451;-76
2022/10/21 00:45:21;;;;;;;16.10;9.80;;;;;;;-141.28;100.00;49323.44;5133621;27;20523;-79
2022/10/21 00:47:51;;;;;;;13.77;9.40;;;;;;;-141.28;100.00;49343.06;5134442;27;20451;-78
2022/10/21 00:50:25;;;;;;;16.53;10.33;;;;;;;-141.28;100.00;49321.50;5136042;27;20436;-78
2022/10/21 00:52:53;;;;;;;15.07;9.43;;;;;;;-141.28;100.00;49295.97;5135869;27;20447;-75
2022/10/21 00:55:21;;;;;;;16.03;10.30;;;;;;;-141.28;100.00;49278.31;5134588;27;20448;-76
2022/10/21 00:57:49;;;;;;;17.60;10.23;;;;;;;-141.28;100.00;49278.31;5137860;27;20459;-74
2022/10/21 01:00:18;;;;;;;19.17;9.50;;;;;;;-141.28;100.00;49278.31;5153239;27;20484;-74
2022/10/21 01:02:45;;;;;;;17.70;9.57;;;;;;;-141.28;100.00;49301.88;5157054;27;20504;-74
2022/10/21 01:05:13;;;;;;;15.40;9.73;;;;;;;-141.28;100.00;49294.03;5156636;27;20443;-77
2022/10/21 01:07:40;;;;;;;13.67;9.50;;;;;;;-141.28;100.00;49315.59;5152966;27;20466;-76
2022/10/21 01:10:08;;;;;;;16.90;9.13;;;;;;;-141.28;100.00;49307.75;5137670;27;20981;-75
2022/10/21 01:12:48;;;;;;;16.50;9.80;;;;;;;-141.28;100.00;49325.41;5133737;27;20443;-76
2022/10/21 01:15:25;;;;;;;14.43;9.40;;;;;;;-141.28;100.00;49343.06;5132969;27;21034;-76
2022/10/21 01:18:00;;;;;;;17.60;10.27;;;;;;;-141.28;100.00;49368.59;5132979;27;20912;-78
2022/10/21 01:20:56;;;;;;;15.67;9.53;;;;;;;-141.28;100.00;49380.34;5133412;27;20863;-77
2022/10/21 01:24:03;;;;;;;15.37;9.43;;;;;;;-141.28;100.00;49388.22;5132848;27;20479;-78
2022/10/21 01:27:05;;;;;;;13.90;9.50;;;;;;;-141.28;100.00;49431.38;5132776;27;20522;-79
2022/10/21 01:30:16;;;;;;;14.93;9.07;;;;;;;-141.28;100.00;49425.50;5089153;28;20815;-77
2022/10/21 01:33:11;;;;;;;18.10;9.80;;;;;;;-141.28;100.00;49415.69;5125315;28;20969;-76
2022/10/21 01:35:47;;;;;;;18.37;9.50;;;;;;;-141.28;100.00;49368.59;5123185;28;20446;-76
2022/10/21 01:38:24;;;;;;;15.10;9.57;;;;;;;-141.28;100.00;49368.59;5131580;28;20478;-80
2022/10/21 01:40:57;;;;;;;23.93;9.77;;;;;;;-141.28;100.00;49388.22;5132600;28;20448;-79
2022/10/21 01:43:33;;;;;;;17.33;9.63;;;;;;;-141.28;100.00;49399.97;5132558;28;20571;-76
2022/10/21 01:46:04;;;;;;;20.93;9.90;;;;;;;-141.28;100.00;49384.28;5132747;28;20447;-77
2022/10/21 01:48:35;;;;;;;18.00;9.23;;;;;;;-141.28;100.00;49431.38;5132649;27;21026;-76
2022/10/21 01:51:05;;;;;;;16.07;9.43;;;;;;;-141.28;100.00;49462.78;5133795;28;20455;-79
2022/10/21 01:53:37;;;;;;;23.50;10.50;;;;;;;-141.28;100.00;49494.16;5133694;28;20480;-79
2022/10/21 01:56:06;;;;;;;23.03;9.53;;;;;;;-141.28;100.00;49494.16;5132259;28;20444;-79
2022/10/21 01:58:37;;;;;;;17.23;9.70;;;;;;;-141.28;100.00;49502.03;5132366;28;20440;-77
2022/10/21 02:01:08;;;;;;;18.47;9.63;;;;;;;-141.28;100.00;49533.41;5132097;27;20456;-77
2022/10/21 02:03:40;;;;;;;22.80;10.00;;;;;;;-141.28;100.00;49551.06;5132155;28;21016;-75
2022/10/21 02:06:07;;;;;;;18.37;9.50;;;;;;;-141.28;100.00;49537.34;5120162;28;20823;-77
2022/10/21 02:08:34;;;;;;;19.20;10.03;;;;;;;-141.28;100.00;49543.22;5132676;28;20508;-77
2022/10/21 02:11:07;;;;;;;17.17;9.43;;;;;;;-141.28;100.00;49568.75;5133450;28;20479;-76
2022/10/21 02:13:40;;;;;;;12.67;9.70;;;;;;;-141.28;100.00;49588.34;5133942;28;20504;-76
2022/10/21 02:16:10;;;;;;;17.33;10.00;;;;;;;-141.28;100.00;49590.31;5137500;27;20455;-73
2022/10/21 02:18:39;;;;;;;18.60;10.77;;;;;;;-141.28;100.00;49604.06;5141546;27;20447;-76
2022/10/21 02:21:10;;;;;;;18.07;10.73;;;;;;;-141.28;100.00;49611.91;5147609;27;20692;-77
2022/10/21 02:23:42;;;;;;;28.57;9.43;;;;;;;-141.28;100.00;49623.69;5154537;27;20479;-74
2022/10/21 02:26:09;;;;;;;17.57;9.30;;;;;;;-141.28;100.00;49619.75;5153759;27;20455;-75
2022/10/21 02:28:36;;;;;;;16.30;9.37;;;;;;;-141.28;100.00;49604.06;5138501;27;20460;-76
2022/10/21 02:31:19;;;;;;;16.50;9.63;;;;;;;-141.28;100.00;49637.41;5136117;27;20508;-76
2022/10/21 02:33:58;;;;;;;18.27;8.90;;;;;;;-141.28;100.00;49657.03;5136262;27;20489;-79
2022/10/21 02:36:35;;;;;;;18.60;8.93;;;;;;;-141.28;100.00;49682.56;5136070;27;21017;-79
2022/10/21 02:39:07;;;;;;;19.50;9.20;;;;;;;-141.28;100.00;49670.78;5135644;27;20953;-77
2022/10/21 02:41:35;;;;;;;33.57;9.80;;;;;;;-141.28;100.00;49664.91;5136333;27;20435;-76
2022/10/21 02:44:04;;;;;;;30.83;9.63;;;;;;;-141.28;100.00;49686.47;5135555;27;20494;-76
2022/10/21 02:46:37;;;;;;;19.43;9.20;;;;;;;-141.28;100.00;49723.75;5135587;27;20954;-78
2022/10/21 02:49:07;;;;;;;25.73;9.87;;;;;;;-141.28;100.00;49739.47;5135323;27;21040;-75
2022/10/21 02:51:34;;;;;;;20.57;11.30;;;;;;;-141.28;100.00;49729.66;5135236;27;20476;-75
2022/10/21 02:54:01;;;;;;;27.10;14.03;;;;;;;-141.28;100.00;49737.50;5135277;27;20444;-76
2022/10/21 02:56:28;;;;;;;30.63;16.50;;;;;;;-141.28;100.00;49749.28;5135578;27;20439;-76
2022/10/21 02:58:55;;;;;;;27.87;14.90;;;;;;;-141.28;100.00;49782.63;5135118;27;20464;-78
2022/10/21 03:01:22;;;;;;;30.67;15.80;;;;;;;-141.28;100.00;49768.91;5135234;27;20972;-77
2022/10/21 03:03:49;;;;;;;32.03;17.50;;;;;;;-141.28;100.00;49776.75;5135004;27;20479;-75
2022/10/21 03:06:18;;;;;;;28.03;15.80;;;;;;;-141.28;100.00;49812.06;5135478;27;20464;-80
2022/10/21 03:08:45;;;;;;;23.50;13.90;;;;;;;-141.28;100.00;49802.25;5136976;27;20444;-74
2022/10/21 03:11:12;;;;;;;24.90;15.37;;;;;;;-141.28;100.00;49825.81;5137889;27;21013;-80
2022/10/21 03:13:39;;;;;;;27.73;15.87;;;;;;;-141.28;100.00;49847.41;5136163;27;20942;-76
2022/10/21 03:16:06;;;;;;;21.30;13.90;;;;;;;-141.28;100.00;49884.69;5135580;27;20451;-75
2022/10/21 03:18:33;;;;;;;21.67;13.80;;;;;;;-141.28;100.00;49890.56;5135407;27;20432;-76
2022/10/21 03:21:00;;;;;;;21.73;13.20;;;;;;;-141.28;100.00;49878.81;5135411;27;20447;-79
2022/10/21 03:23:29;;;;;;;31.43;13.50;;;;;;;-141.28;100.00;49906.28;5135232;27;20927;-80
2022/10/21 03:25:56;;;;;;;26.70;14.17;;;;;;;-141.28;100.00;49925.91;5134979;27;20448;-75
2022/10/21 03:28:22;;;;;;;26.77;14.13;;;;;;;-141.28;100.00;49933.75;5133780;27;20946;-76
2022/10/21 03:30:49;;;;;;;29.87;13.57;;;;;;;-141.28;100.00;49910.19;5134673;27;20817;-75
2022/10/21 03:33:16;;;;;;;27.13;13.43;;;;;;;-141.28;100.00;49963.19;5130320;27;20518;-75
2022/10/21 03:35:43;;;;;;;31.87;15.20;;;;;;;-141.28;100.00;49984.78;5125354;27;20452;-76
2022/10/21 03:38:10;;;;;;;27.80;14.17;;;;;;;-141.28;100.00;49992.63;5134807;27;20922;-76
2022/10/21 03:40:38;;;;;;;27.07;13.83;;;;;;;-141.28;100.00;50035.81;5134625;27;20443;-79
2022/10/21 03:43:06;;;;;;;29.53;13.17;;;;;;;-141.28;100.00;50024.03;5134397;27;20451;-79
2022/10/21 03:45:33;;;;;;;21.03;12.37;;;;;;;-141.28;100.00;50100.56;5134423;27;20517;-77
2022/10/21 03:48:01;;;;;;;29.17;13.00;;;;;;;-141.28;100.00;50063.28;5133888;27;20443;-77
2022/10/21 03:50:28;;;;;;;24.87;12.83;;;;;;;-141.28;100.00;50088.78;5134501;27;20440;-79
2022/10/21 03:52:55;;;;;;;27.07;13.07;;;;;;;-141.28;100.00;50100.56;5134290;27;20436;-75
2022/10/21 03:55:24;;;;;;;26.23;12.03;;;;;;;-141.28;100.00;50102.53;5134949;27;20446;-75
2022/10/21 03:57:53;;;;;;;30.73;13.80;;;;;;;-141.28;100.00;50071.13;5134342;27;20818;-77
2022/10/21 04:00:20;;;;;;;25.53;13.67;;;;;;;-141.28;100.00;50102.53;5134452;27;20460;-78
2022/10/21 04:02:47;;;;;;;33.17;13.03;;;;;;;-141.28;100.00;50122.16;5134077;27;20432;-77
2022/10/21 04:05:16;;;;;;;24.93;12.90;;;;;;;-141.28;100.00;50153.56;5133829;27;20483;-76
2022/10/21 04:07:43;;;;;;;33.43;13.13;;;;;;;-141.28;100.00;50159.44;5133754;27;20439;-75
2022/10/21 04:10:10;;;;;;;23.57;12.23;;;;;;;-141.28;100.00;50141.78;5133641;27;20459;-77
2022/10/21 04:12:37;;;;;;;27.57;12.47;;;;;;;-141.28;100.00;50149.63;5134000;27;20832;-78
2022/10/21 04:15:08;;;;;;;26.30;12.53;;;;;;;-141.28;100.00;50218.34;5134552;27;20492;-76
2022/10/21 04:17:35;;;;;;;20.70;12.10;;;;;;;-141.28;100.00;50186.94;5135182;27;20436;-76
2022/10/21 04:20:05;;;;;;;24.70;13.13;;;;;;;-141.28;100.00;50220.28;5134409;27;20448;-78
2022/10/21 04:22:32;;;;;;;23.97;12.33;;;;;;;-141.28;100.00;50204.59;5134033;27;20508;-76
2022/10/21 04:24:58;;;;;;;27.77;12.53;;;;;;;-141.28;100.00;50216.38;5133479;27;20528;-75
2022/10/21 04:27:25;;;;;;;34.67;14.43;;;;;;;-141.28;100.00;50220.28;5136957;27;20975;-77
2022/10/21 04:29:52;;;;;;;31.63;13.93;;;;;;;-141.28;100.00;50234.03;5134070;27;20440;-79
2022/10/21 04:32:20;;;;;;;46.23;15.23;;;;;;;-141.28;100.00;50255.63;5133657;27;20563;-78
2022/10/21 04:34:47;;;;;;;41.73;15.37;;;;;;;-141.28;100.00;50251.69;5132727;27;20976;-75
2022/10/21 04:37:14;;;;;;;35.13;14.60;;;;;;;-141.28;100.00;50259.56;5132877;27;20444;-78
2022/10/21 04:39:42;;;;;;;40.27;15.90;;;;;;;-141.28;100.00;50267.41;5133213;27;20442;-78
2022/10/21 04:42:08;;;;;;;40.07;15.90;;;;;;;-141.28;100.00;50255.63;5133065;27;20451;-77
2022/10/21 04:44:38;;;;;;;34.37;16.23;;;;;;;-141.28;100.00;50271.31;5133873;27;20484;-76
2022/10/21 04:47:05;;;;;;;44.10;20.77;;;;;;;-141.28;100.00;50283.09;5133528;27;20440;-76
2022/10/21 04:49:43;;;;;;;25.30;13.77;;;;;;;-141.28;100.00;50269.38;5133386;27;20821;-79
2022/10/21 04:52:10;;;;;;;25.07;14.20;;;;;;;-141.28;100.00;50265.44;5120570;27;20455;-77
2022/10/21 04:54:37;;;;;;;23.20;13.10;;;;;;;-141.28;100.00;50255.63;5132992;27;20452;-78
2022/10/21 04:57:04;;;;;;;29.20;12.20;;;;;;;-141.28;100.00;50267.41;5132492;27;20509;-77
2022/10/21 04:59:32;;;;;;;25.00;12.27;;;;;;;-141.28;100.00;50283.09;5133228;27;20989;-77
2022/10/21 05:02:00;;;;;;;22.37;12.20;;;;;;;-141.28;100.00;50292.91;5132886;27;20880;-77
2022/10/21 05:04:27;;;;;;;23.47;12.17;;;;;;;-141.28;100.00;50304.69;5133750;27;20479;-76
2022/10/21 05:06:56;;;;;;;42.23;13.60;;;;;;;-141.28;100.00;50294.88;5134252;27;20508;-76
2022/10/21 05:09:24;;;;;;;25.43;12.10;;;;;;;-141.28;100.00;50318.44;5134105;27;20444;-75
2022/10/21 05:11:51;;;;;;;14.57;9.67;;;;;;;-141.28;100.00;50345.91;5131844;27;20525;-75
2022/10/21 05:14:18;;;;;;;21.63;10.73;;;;;;;-141.28;100.00;50330.22;5133888;27;20453;-74
2022/10/21 05:16:45;;;;;;;18.10;11.13;;;;;;;-141.28;100.00;50381.25;5134242;27;20435;-78
2022/10/21 05:19:12;;;;;;;18.13;10.17;;;;;;;-141.28;100.00;50357.69;5134255;27;20443;-77
2022/10/21 05:21:39;;;;;;;19.70;10.63;;;;;;;-141.28;100.00;50483.31;5133150;27;20444;-76
2022/10/21 05:24:12;;;;;;;24.77;11.30;;;;;;;-141.28;100.00;50487.25;5132461;27;20900;-77
2022/10/21 05:26:39;;;;;;;17.60;9.57;;;;;;;-141.28;100.00;50563.78;5132824;27;20439;-76
2022/10/21 05:29:06;;;;;;;19.10;10.00;;;;;;;-141.28;100.00;50640.34;5132330;27;20444;-76
2022/10/21 05:31:37;;;;;;;16.53;10.20;;;;;;;-141.28;100.00;50777.75;5132476;28;20450;-78
2022/10/21 05:34:03;;;;;;;22.60;10.30;;;;;;;-141.28;100.00;50852.34;5132477;28;20836;-77
2022/10/21 05:36:30;;;;;;;22.00;11.10;;;;;;;-141.28;100.00;50962.28;5133355;28;20447;-80
2022/10/21 05:38:58;;;;;;;30.17;14.13;;;;;;;-141.28;100.00;51087.94;5133763;28;20440;-75
2022/10/21 05:41:27;;;;;;;28.70;17.67;;;;;;;-141.28;100.00;51107.56;5132877;28;20202;-76
2022/10/21 05:43:54;;;;;;;34.57;19.50;;;;;;;-141.28;100.00;51111.50;5133166;28;20194;-76
2022/10/21 05:46:21;;;;;;;37.87;19.13;;;;;;;-141.28;100.00;51001.56;5135062;28;20639;-75
2022/10/21 05:48:49;;;;;;;35.23;17.30;;;;;;;-141.28;100.00;50848.44;5132602;28;20217;-81
2022/10/21 05:51:16;;;;;;;33.07;14.87;;;;;;;-141.28;100.00;50367.50;5135000;27;20206;-80
2022/10/21 05:53:43;;;;;;;31.80;16.30;;;;;;;-141.28;100.00;50428.34;5137005;27;20198;-76
2022/10/21 05:56:11;;;;;;;24.40;13.53;;;;;;;-141.28;100.00;50434.25;5136905;27;20205;-79
2022/10/21 05:58:39;;;;;;;40.17;13.17;;;;;;;-141.28;100.00;50420.50;5123104;27;20202;-80
2022/10/21 06:01:06;;;;;;;25.50;11.00;;;;;;;-141.28;100.00;50589.31;5136573;27;20221;-75
2022/10/21 06:03:33;;;;;;;23.57;10.83;;;;;;;-141.28;100.00;50365.53;5136621;27;20195;-78
2022/10/21 06:06:02;;;;;;;19.87;10.23;;;;;;;-141.28;100.00;50565.75;5136365;27;20660;-77
2022/10/21 06:08:31;;;;;;;21.17;10.73;;;;;;;-141.28;100.00;50769.91;5136192;27;20201;-80
2022/10/21 06:11:01;;;;;;;18.00;9.93;;;;;;;-141.28;100.00;50917.13;5126522;27;20255;-76
2022/10/21 06:13:29;;;;;;;41.97;12.77;;;;;;;-141.28;100.00;51017.25;5133751;27;20297;-76
2022/10/21 06:15:58;;;;;;;20.17;11.33;;;;;;;-141.28;100.00;51052.59;5136343;27;20208;-76
2022/10/21 06:18:25;;;;;;;27.00;14.10;;;;;;;-141.28;100.00;51152.72;5135783;27;20204;-78
2022/10/21 06:20:53;;;;;;;31.20;15.43;;;;;;;-141.28;100.00;51258.72;5136026;27;20252;-78
2022/10/21 06:23:20;;;;;;;19.40;11.83;;;;;;;-141.28;100.00;51311.75;5135770;27;20622;-78
2022/10/21 06:25:55;;;;;;;25.37;10.43;;;;;;;-141.28;100.00;51245.00;5135728;27;20233;-77
2022/10/21 06:28:22;;;;;;;14.47;8.40;;;;;;;-141.28;100.00;51117.38;5122811;27;20193;-77
2022/10/21 06:30:50;;;;;;;14.27;7.33;;;;;;;-141.28;100.00;50993.69;5135892;27;20672;-76
2022/10/21 06:33:19;;;;;;;13.17;8.10;;;;;;;-141.28;100.00;50925.00;5135766;27;20206;-80
2022/10/21 06:35:45;;;;;;;13.30;9.33;;;;;;;-141.28;100.00;50868.06;5134948;27;20752;-78
2022/10/21 06:38:12;;;;;;;15.87;8.50;;;;;;;-141.28;100.00;50828.78;5136466;27;20198;-77
2022/10/21 06:40:39;;;;;;;16.80;8.87;;;;;;;-141.28;100.00;50815.06;5142240;27;20206;-76
2022/10/21 06:43:06;;;;;;;24.23;12.63;;;;;;;-141.28;100.00;50785.59;5143584;27;20202;-76
2022/10/21 06:45:33;;;;;;;25.90;10.07;;;;;;;-141.28;100.00;50762.06;5144095;27;20230;-75
2022/10/21 06:48:00;;;;;;;19.03;10.17;;;;;;;-141.28;100.00;50762.06;5140092;27;20198;-75
2022/10/21 06:50:29;;;;;;;15.57;9.97;;;;;;;-141.28;100.00;50760.09;5136456;27;20289;-79
2022/10/21 06:52:56;;;;;;;16.70;9.63;;;;;;;-141.28;100.00;50695.31;5136464;27;20194;-78
2022/10/21 06:55:24;;;;;;;17.53;10.03;;;;;;;-141.28;100.00;50691.38;5135364;27;20210;-77
2022/10/21 06:57:51;;;;;;;19.37;9.37;;;;;;;-141.28;100.00;50589.31;5135528;27;20198;-77
2022/10/21 07:00:18;;;;;;;13.63;9.13;;;;;;;-141.28;100.00;50569.69;5134927;27;20604;-77
2022/10/21 07:02:45;;;;;;;18.70;10.00;;;;;;;-141.28;100.00;50654.09;5139491;27;20223;-76
2022/10/21 07:05:12;;;;;;;16.17;9.40;;;;;;;-141.28;100.00;50707.09;5135978;27;20218;-76
2022/10/21 07:07:41;;;;;;;17.53;9.10;;;;;;;-141.28;100.00;50724.75;5135385;27;20292;-76
2022/10/21 07:10:09;;;;;;;15.37;8.33;;;;;;;-141.28;100.00;50769.91;5121021;27;20194;-76
2022/10/21 07:12:36;;;;;;;21.17;9.90;;;;;;;-141.28;100.00;50777.75;5135774;27;20679;-79
2022/10/21 07:15:03;;;;;;;22.07;9.30;;;;;;;-141.28;100.00;50756.16;5134702;27;20700;-76
2022/10/21 07:17:30;;;;;;;16.47;9.57;;;;;;;-141.28;100.00;50730.66;5135210;27;20206;-75
2022/10/21 07:19:57;;;;;;;22.67;10.03;;;;;;;-141.28;100.00;50769.91;5134901;27;20233;-77
2022/10/21 07:22:24;;;;;;;22.50;9.50;;;;;;;-141.28;100.00;50746.34;5135642;27;20260;-78
2022/10/21 07:24:53;;;;;;;21.70;10.33;;;;;;;-141.28;100.00;50809.16;5134435;27;20726;-76
2022/10/21 07:27:20;;;;;;;18.87;10.07;;;;;;;-141.28;100.00;50773.81;5134842;27;20205;-76
2022/10/21 07:29:46;;;;;;;18.23;9.57;;;;;;;-141.28;100.00;50781.69;5135063;27;20195;-74
2022/10/21 07:32:14;;;;;;;16.57;10.70;;;;;;;-141.28;100.00;50730.66;5140767;27;20202;-76
2022/10/21 07:34:41;;;;;;;14.77;9.73;;;;;;;-141.28;100.00;50777.75;5139918;27;20230;-74
2022/10/21 07:37:08;;;;;;;15.07;9.07;;;;;;;-141.28;100.00;50628.56;5139753;27;20202;-74
2022/10/21 07:39:34;;;;;;;18.00;8.30;;;;;;;-141.28;100.00;50524.53;5140635;27;20201;-76
2022/10/21 07:42:03;;;;;;;21.07;10.70;;;;;;;-141.28;100.00;50502.94;5140446;27;20205;-76
2022/10/21 07:44:30;;;;;;;19.03;9.63;;;;;;;-141.28;100.00;50546.13;5136023;27;20205;-75
2022/10/21 07:46:57;;;;;;;17.20;9.97;;;;;;;-141.28;100.00;50659.97;5134545;27;20708;-76
2022/10/21 07:49:24;;;;;;;18.73;10.23;;;;;;;-141.28;100.00;50616.78;5127610;27;20211;-78
2022/10/21 07:51:50;;;;;;;21.77;9.27;;;;;;;-141.28;100.00;50652.13;5127837;27;20244;-76
2022/10/21 07:54:19;;;;;;;19.60;9.47;;;;;;;-141.28;100.00;50711.00;5134299;27;20206;-77
2022/10/21 07:56:47;;;;;;;19.37;9.97;;;;;;;-141.28;100.00;50744.38;5133898;27;20198;-77
2022/10/21 07:59:17;;;;;;;20.40;8.73;;;;;;;-141.28;100.00;50899.47;5134081;27;20675;-75
2022/10/21 08:01:46;;;;;;;16.80;10.47;;;;;;;-141.28;100.00;50930.88;5134101;27;20226;-76
2022/10/21 08:04:15;;;;;;;18.13;10.17;;;;;;;-141.28;100.00;50895.53;5133738;27;20194;-76
2022/10/21 08:06:45;;;;;;;16.60;9.93;;;;;;;-141.28;100.00;50964.25;5133908;27;20690;-76
2022/10/21 08:09:13;;;;;;;18.93;10.23;;;;;;;-141.28;100.00;50797.38;5133950;27;20206;-77
2022/10/21 08:11:40;;;;;;;19.27;10.43;;;;;;;-141.28;100.00;50769.91;5133898;27;20699;-77
2022/10/21 08:14:08;;;;;;;19.03;9.83;;;;;;;-141.28;100.00;50652.13;5133493;27;20228;-79
2022/10/21 08:16:37;;;;;;;17.57;10.07;;;;;;;-141.28;100.00;50648.19;5133455;27;20800;-77
2022/10/21 08:19:05;;;;;;;16.20;10.63;;;;;;;-141.28;100.00;50606.97;5134150;27;20202;-75
2022/10/21 08:21:33;;;;;;;17.33;10.57;;;;;;;-141.28;100.00;50618.75;5137656;27;20194;-77
2022/10/21 08:24:03;;;;;;;17.70;10.20;;;;;;;-141.28;100.00;50591.28;5133383;27;20202;-75
2022/10/21 08:26:30;;;;;;;19.40;9.93;;;;;;;-141.28;100.00;50553.97;5133233;27;20317;-77
2022/10/21 08:28:57;;;;;;;16.07;10.53;;;;;;;-141.28;100.00;50369.47;5133461;27;20668;-76
2022/10/21 08:31:24;;;;;;;20.27;10.70;;;;;;;-141.28;100.00;50310.59;5133466;27;20194;-79
2022/10/21 08:33:54;;;;;;;19.10;10.00;;;;;;;-141.28;100.00;50599.13;5133401;27;20232;-79
2022/10/21 08:36:24;;;;;;;19.07;10.53;;;;;;;-141.28;100.00;50585.38;5133448;27;20201;-80
2022/10/21 08:38:52;;;;;;;18.03;10.90;;;;;;;-141.28;100.00;50538.28;5124961;27;20205;-76
2022/10/21 08:41:38;;;;;;;15.27;10.80;;;;;;;-141.28;100.00;50526.50;5120829;27;20654;-78
2022/10/21 08:44:11;;;;;;;17.73;10.13;;;;;;;-141.28;100.00;50487.25;5133171;27;20194;-77
2022/10/21 08:46:43;;;;;;;17.90;11.00;;;;;;;-141.28;100.00;50461.72;5133488;27;20286;-76
2022/10/21 08:49:18;;;;;;;14.73;9.70;;;;;;;-141.28;100.00;50428.34;5132762;27;20205;-76
2022/10/21 08:51:50;;;;;;;18.53;10.27;;;;;;;-141.28;100.00;50373.38;5132859;27;20201;-79
2022/10/21 08:54:22;;;;;;;17.87;10.73;;;;;;;-141.28;100.00;50338.06;5120562;27;20199;-81
2022/10/21 08:56:54;;;;;;;16.37;10.20;;;;;;;-141.28;100.00;50446.03;5132750;27;20205;-77
2022/10/21 08:59:22;;;;;;;16.47;10.53;;;;;;;-141.28;100.00;50259.56;5133300;27;20206;-76
2022/10/21 09:01:56;;;;;;;16.90;9.30;;;;;;;-141.28;100.00;50196.75;5132984;27;20226;-79
2022/10/21 09:04:35;;;;;;;18.40;10.17;;;;;;;-141.28;100.00;50094.69;5132913;27;20206;-77
2022/10/21 09:07:08;;;;;;;18.33;10.23;;;;;;;-141.28;100.00;49925.91;5133119;27;20218;-80
2022/10/21 09:09:43;;;;;;;20.93;9.57;;;;;;;-141.28;100.00;49764.97;5132901;27;20206;-77
2022/10/21 09:12:20;;;;;;;21.63;10.83;;;;;;;-141.28;100.00;49615.84;5118885;27;20233;-76
2022/10/21 09:15:11;;;;;;;15.83;9.70;;;;;;;-141.28;100.00;49733.56;5132727;27;20206;-79
2022/10/21 09:17:53;;;;;;;18.33;10.03;;;;;;;-141.28;100.00;49698.25;5133251;27;20210;-80
2022/10/21 09:20:35;;;;;;;19.47;11.17;;;;;;;-141.28;100.00;49969.06;5120599;27;20206;-78
2022/10/21 09:23:18;;;;;;;19.07;9.70;;;;;;;-141.28;100.00;50102.53;5133632;27;20206;-80
2022/10/21 09:25:53;;;;;;;17.40;9.30;;;;;;;-141.28;100.00;50051.50;5138211;27;20233;-76
2022/10/21 09:28:24;;;;;;;19.33;10.47;;;;;;;-141.28;100.00;49967.13;5132328;27;20229;-79
2022/10/21 09:30:52;;;;;;;14.53;10.00;;;;;;;-141.28;100.00;49855.25;5135207;28;20206;-77
2022/10/21 09:33:24;;;;;;;18.00;10.10;;;;;;;-141.28;100.00;49882.72;5135202;28;20252;-78
2022/10/21 09:35:57;;;;;;;17.33;10.33;;;;;;;-141.28;100.00;49816.00;5135379;28;20202;-76
2022/10/21 09:38:28;;;;;;;15.33;9.40;;;;;;;-141.28;100.00;49792.44;5139863;28;20212;-76
2022/10/21 09:41:02;;;;;;;12.07;8.63;;;;;;;-141.28;100.00;49604.06;5147359;28;20290;-77
2022/10/21 09:43:29;;;;;;;18.67;9.67;;;;;;;-141.28;100.00;49880.75;5153913;28;20203;-76
2022/10/21 09:45:57;;;;;;;12.70;9.73;;;;;;;-141.28;100.00;49808.16;5150076;28;20205;-75
2022/10/21 09:48:29;;;;;;;18.17;9.83;;;;;;;-141.28;100.00;49694.31;5147499;28;20198;-76
2022/10/21 09:51:06;;;;;;;18.40;9.70;;;;;;;-141.28;100.00;49592.28;5141170;28;20202;-77
2022/10/21 09:53:37;;;;;;;14.07;9.03;;;;;;;-141.28;100.00;49698.25;5148571;28;20202;-77
2022/10/21 09:56:12;;;;;;;18.10;10.70;;;;;;;-141.28;100.00;50063.28;5131722;28;20249;-77
2022/10/21 09:59:04;;;;;;;15.67;9.47;;;;;;;-141.28;100.00;49413.72;5132391;28;20205;-76
2022/10/21 10:01:31;;;;;;;15.47;9.50;;;;;;;-141.28;100.00;49396.06;5132363;27;20226;-80
2022/10/21 10:03:58;;;;;;;11.90;8.90;;;;;;;-141.28;100.00;49378.41;5132424;28;20226;-77
2022/10/21 10:06:37;;;;;;;15.03;10.00;;;;;;;-141.28;100.00;49341.13;5137790;28;20222;-76
2022/10/21 10:09:24;;;;;;;16.00;9.30;;;;;;;-141.28;100.00;49333.25;5128305;28;20198;-75
2022/10/21 10:11:55;;;;;;;11.97;9.27;;;;;;;-141.28;100.00;49331.31;5134337;28;20236;-77
2022/10/21 10:14:31;;;;;;;13.43;8.13;;;;;;;-141.28;100.00;49213.56;5132227;28;20664;-76
2022/10/21 10:17:18;;;;;;;17.80;9.47;;;;;;;-141.28;100.00;49223.38;5130521;28;20202;-76
2022/10/21 10:20:11;;;;;;;13.53;8.90;;;;;;;-141.28;100.00;49262.63;5131803;28;20297;-76
2022/10/21 10:22:42;;;;;;;14.27;9.90;;;;;;;-141.28;100.00;49250.84;5132714;27;20207;-79
2022/10/21 10:25:09;;;;;;;13.83;10.00;;;;;;;-141.28;100.00;49231.22;5131880;28;20205;-76
2022/10/21 10:27:36;;;;;;;19.13;9.00;;;;;;;-141.28;100.00;49152.75;5131640;28;20241;-76
2022/10/21 10:30:05;;;;;;;15.93;9.10;;;;;;;-141.28;100.00;49223.38;5131734;28;20198;-80
2022/10/21 10:32:35;;;;;;;14.90;9.27;;;;;;;-141.28;100.00;49231.22;5131841;28;20198;-78
2022/10/21 10:35:07;;;;;;;16.20;9.30;;;;;;;-141.28;100.00;49319.53;5113770;28;20550;-77
2022/10/21 10:37:37;;;;;;;18.60;10.43;;;;;;;-141.28;100.00;49231.22;5134873;27;20202;-80
2022/10/21 10:40:09;;;;;;;15.43;9.30;;;;;;;-141.28;100.00;49239.09;5140698;27;20190;-76
2022/10/21 10:42:44;;;;;;;11.63;8.30;;;;;;;-141.28;100.00;49239.09;5145666;27;20212;-77
2022/10/21 10:45:15;;;;;;;15.03;9.67;;;;;;;-141.28;100.00;49154.72;5146290;27;20664;-75
2022/10/21 10:47:47;;;;;;;14.87;9.70;;;;;;;-141.28;100.00;49207.69;5146481;27;20649;-74
2022/10/21 10:50:42;;;;;;;16.17;9.70;;;;;;;-141.28;100.00;49192.00;5145408;27;20205;-74
2022/10/21 10:53:26;;;;;;;13.23;9.37;;;;;;;-141.28;99.70;49203.75;5143272;27;20228;-75
2022/10/21 10:56:04;;;;;;;12.67;8.83;;;;;;;-141.28;99.82;49199.84;5142042;27;20221;-76
2022/10/21 10:58:35;;;;;;;15.37;9.10;;;;;;;-141.28;95.30;49074.25;5135652;27;20270;-80
2022/10/21 11:01:13;;;;;;;14.97;8.90;;;;;;;-141.28;89.86;49164.53;5134819;27;20225;-78
2022/10/21 11:03:46;;;;;;;14.60;9.73;;;;;;;-141.28;84.77;49140.97;5135793;27;20284;-80
2022/10/21 11:06:36;;;;;;;12.87;9.33;;;;;;;-141.28;89.11;49148.81;5135532;27;20300;-76
2022/10/21 11:09:07;;;;;;;15.23;9.70;;;;;;;-141.28;88.00;49195.91;5135014;27;20205;-79
2022/10/21 11:11:40;;;;;;;18.53;9.67;;;;;;;-141.28;94.85;49188.06;5134929;27;20237;-78